York, Maine
Current Conditions -  °F | °C
As of 7:58 AM on Wednesday 22 Oct 2014 (Local Time) from KPSM Reporting Station
Drizzle Drizzle  
Wind Chill: 51°   Ceiling: 500
Heat Index: 51°   Visibility: 4mi
Dew Point: 49°   Wind: 15mph
Humidity: 91%   Direction: 30°NNE
Pressure: 30.05"   Gusts: 24mph
Location:  43.15°N, 70.65°W
Report Text: KPSM 221158Z 03013G21KT 4SM -DZ BR OVC005 11/09 A3005 RMK AO2A PK WND 02028/20 SLP180 P0001 60022 70028 T01080094 10115 20094 52010
Loading
Personal Weather Stations






























Interactive Weather Map
Tropical Storm Tracking
New forecast layout! Learn more

10-Day Weather Forecast

Advertisements
Track Severe Weather on mobile